Terminal Aerodrome Forecast
Issued by NWS Boston, MA

Home | Current Version | Previous Version | Text Only | Print | Product List | Glossary On
Versions: 1 2 3 4 5 6 7 8 9 10 11 12 13 14 15 16 17 18 19 20 21 22 23 24
000
FTUS41 KBOX 271446 AAA
TAFBOS
TAF AMD
KBOS 271446Z 2715/2818 21010KT P6SM FEW035 BKN110
     FM271700 21007KT P6SM VCSH SCT040 BKN080
     FM280000 21007KT P6SM BKN015
     FM280500 23006KT 3SM BR BKN008
     FM280800 26004KT 2SM BR BKN008
     FM281300 32005KT P6SM SCT250=

USA.gov is the U.S. government's official web portal to all federal, state and local government web resources and services.